Hoxie, Arkansas
Current Conditions -  °F | °C
As of 9:55 PM on Wednesday 22 Oct 2014 (Local Time) from KARG Reporting Station
Clear Clear  
Wind Chill: 52°   Ceiling: Unl
Heat Index: 52°   Visibility: 10mi
Dew Point: 41°   Wind: 3mph
Humidity: 67%   Direction: 340°NNW
Pressure: 30.2"   Gusts: NA
Location:  36.05°N, 90.98°W
Report Text: KARG 230255Z AUTO 34003KT 10SM CLR 11/05 A3020 RMK AO1 52003
Loading
Personal Weather Stations






























Interactive Weather Map
Tropical Storm Tracking
New forecast layout! Learn more

10-Day Weather Forecast

Advertisements
Track Severe Weather on mobile